createdAt,value
2022-11-24T00:00:30.694Z,0.00
2022-11-24T00:01:30.843Z,0.00
2022-11-24T00:02:31.045Z,0.00
2022-11-24T00:03:31.102Z,0.00
2022-11-24T00:04:31.395Z,0.00
2022-11-24T00:05:31.321Z,0.00
2022-11-24T00:06:31.414Z,0.00
2022-11-24T00:07:31.585Z,0.00
2022-11-24T00:08:31.651Z,0.00
2022-11-24T00:09:31.813Z,0.00
2022-11-24T00:10:31.935Z,0.00
2022-11-24T00:11:32.152Z,0.00
2022-11-24T00:12:32.199Z,0.00
2022-11-24T00:13:32.319Z,0.00
2022-11-24T00:14:32.650Z,0.00
2022-11-24T00:15:32.499Z,0.00
2022-11-24T00:16:32.680Z,0.00
2022-11-24T00:17:32.770Z,0.00
2022-11-24T00:18:32.908Z,0.00
2022-11-24T00:19:33.067Z,0.00
2022-11-24T00:20:33.187Z,0.00
2022-11-24T00:21:33.446Z,0.00
2022-11-24T00:22:33.448Z,0.00
2022-11-24T00:23:33.629Z,0.00
2022-11-24T00:24:34.023Z,0.00
2022-11-24T00:25:33.828Z,0.00
2022-11-24T00:26:33.993Z,0.00
2022-11-24T00:27:34.090Z,0.00
2022-11-24T00:28:34.229Z,0.00
2022-11-24T00:29:34.395Z,0.00
2022-11-24T00:30:34.525Z,0.00
2022-11-24T00:31:34.760Z,0.00
2022-11-24T00:32:34.726Z,0.00
2022-11-24T00:33:34.873Z,0.00
2022-11-24T00:34:35.311Z,0.00
2022-11-24T00:35:35.101Z,0.00
2022-11-24T00:36:35.280Z,0.00
2022-11-24T00:37:35.373Z,0.00
2022-11-24T00:38:35.482Z,0.00
2022-11-24T00:39:35.617Z,0.00
2022-11-24T00:40:35.752Z,0.00
2022-11-24T00:41:35.900Z,0.00
2022-11-24T00:42:35.992Z,0.00
2022-11-24T00:43:36.125Z,0.00
2022-11-24T00:44:36.276Z,0.00
2022-11-24T00:45:36.435Z,0.00
2022-11-24T00:46:36.590Z,0.00
2022-11-24T00:47:36.610Z,0.00
2022-11-24T00:48:36.745Z,0.00
2022-11-24T00:49:36.880Z,0.00
2022-11-24T00:50:37.009Z,0.00
2022-11-24T00:51:37.244Z,0.00
2022-11-24T00:52:37.252Z,0.00
2022-11-24T00:53:37.432Z,0.00
2022-11-24T00:54:37.522Z,0.00
2022-11-24T00:55:37.659Z,0.00
2022-11-24T00:56:37.896Z,0.00
2022-11-24T00:57:37.927Z,0.00
2022-11-24T00:58:38.077Z,0.00
2022-11-24T00:59:38.157Z,0.00
2022-11-24T01:00:38.308Z,0.00
2022-11-24T01:01:38.516Z,0.00
2022-11-24T01:02:38.629Z,0.00
2022-11-24T01:03:38.723Z,0.00
2022-11-24T01:04:38.908Z,0.00
2022-11-24T01:05:38.988Z,0.00
2022-11-24T01:06:39.156Z,0.00
2022-11-24T01:07:39.351Z,0.00
2022-11-24T01:08:39.366Z,0.00
2022-11-24T01:09:39.504Z,0.00
2022-11-24T01:10:39.679Z,0.00
2022-11-24T01:11:39.833Z,0.00
2022-11-24T01:12:39.865Z,0.00
2022-11-24T01:13:40.004Z,0.00
2022-11-24T01:14:40.168Z,0.00
2022-11-24T01:15:40.373Z,0.00
2022-11-24T01:16:40.464Z,0.00
2022-11-24T01:17:40.558Z,0.00
2022-11-24T01:18:40.650Z,0.00
2022-11-24T01:19:40.810Z,0.00
2022-11-24T01:20:40.922Z,0.00
2022-11-24T01:21:41.113Z,0.00
2022-11-24T01:22:41.211Z,0.00
2022-11-24T01:23:41.363Z,0.00
2022-11-24T01:24:41.462Z,0.00
2022-11-24T01:25:41.612Z,0.00
2022-11-24T01:26:41.742Z,0.00
2022-11-24T01:27:41.825Z,0.00
2022-11-24T01:28:46.630Z,0.00
2022-11-24T01:29:43.091Z,0.00
2022-11-24T01:30:42.276Z,0.00
2022-11-24T01:31:42.429Z,0.00
2022-11-24T01:32:42.476Z,0.00
2022-11-24T01:33:42.621Z,0.00
2022-11-24T01:34:42.755Z,0.00
2022-11-24T01:35:42.898Z,0.00
2022-11-24T01:36:43.088Z,0.00
2022-11-24T01:37:43.132Z,0.00
2022-11-24T01:38:43.309Z,0.00
2022-11-24T01:39:43.377Z,0.00
2022-11-24T01:40:43.515Z,0.00
2022-11-24T01:41:43.676Z,0.00
2022-11-24T01:42:43.765Z,0.00
2022-11-24T01:43:43.906Z,0.00
2022-11-24T01:44:44.037Z,0.00
2022-11-24T01:45:44.264Z,0.00
2022-11-24T01:46:44.295Z,0.00
2022-11-24T01:47:44.386Z,0.00
2022-11-24T01:48:44.534Z,0.00
2022-11-24T01:49:44.653Z,0.00
2022-11-24T01:50:44.809Z,0.00
2022-11-24T01:51:44.932Z,0.00
2022-11-24T01:52:45.040Z,0.00
2022-11-24T01:53:45.184Z,0.00
2022-11-24T01:54:45.311Z,0.00
2022-11-24T01:55:45.451Z,0.00
2022-11-24T01:56:45.586Z,0.00
2022-11-24T01:57:45.653Z,0.00
2022-11-24T01:58:45.820Z,0.00
2022-11-24T01:59:45.921Z,0.00
2022-11-24T02:00:46.010Z,0.00
2022-11-24T02:01:46.243Z,0.00
2022-11-24T02:02:46.324Z,0.00
2022-11-24T02:03:46.391Z,0.00
2022-11-24T02:04:46.567Z,0.00
2022-11-24T02:05:46.679Z,0.00
2022-11-24T02:06:46.870Z,0.00
2022-11-24T02:07:46.975Z,0.00
2022-11-24T02:08:47.100Z,0.00
2022-11-24T02:09:47.259Z,0.00
2022-11-24T02:10:47.357Z,0.00
2022-11-24T02:11:47.597Z,0.00
2022-11-24T02:12:47.620Z,0.00
2022-11-24T02:13:47.787Z,0.00
2022-11-24T02:14:47.876Z,0.00
2022-11-24T02:15:48.110Z,0.00
2022-11-24T02:16:48.201Z,0.00
2022-11-24T02:17:48.296Z,0.00
2022-11-24T02:18:48.426Z,0.00
2022-11-24T02:19:48.585Z,0.00
2022-11-24T02:20:48.726Z,0.00
2022-11-24T02:21:48.856Z,0.00
2022-11-24T02:22:48.951Z,0.00
2022-11-24T02:23:49.106Z,0.00
2022-11-24T02:24:49.236Z,0.00
2022-11-24T02:25:49.382Z,0.00
2022-11-24T02:26:49.538Z,0.00
2022-11-24T02:27:53.887Z,0.00
2022-11-24T02:28:49.748Z,0.00
2022-11-24T02:29:49.904Z,0.00
2022-11-24T02:30:50.089Z,0.00
2022-11-24T02:31:50.212Z,0.00
2022-11-24T02:32:50.331Z,0.00
2022-11-24T02:33:50.452Z,0.00
2022-11-24T02:34:50.568Z,0.00
2022-11-24T02:35:50.693Z,0.00
2022-11-24T02:36:50.865Z,0.00
2022-11-24T02:37:50.979Z,0.00
2022-11-24T02:38:51.096Z,0.00
2022-11-24T02:39:51.217Z,0.00
2022-11-24T02:40:51.361Z,0.00
2022-11-24T02:41:51.542Z,0.00
2022-11-24T02:42:51.630Z,0.00
2022-11-24T02:43:51.791Z,0.00
2022-11-24T02:44:51.893Z,0.00
2022-11-24T02:45:52.064Z,0.00
2022-11-24T02:46:52.197Z,0.00
2022-11-24T02:47:52.289Z,0.00
2022-11-24T02:48:52.484Z,0.00
2022-11-24T02:49:52.579Z,0.00
2022-11-24T02:50:52.720Z,0.00
2022-11-24T02:51:53.051Z,0.00
2022-11-24T02:52:52.925Z,0.00
2022-11-24T02:53:53.047Z,0.00
2022-11-24T02:54:53.237Z,0.00
2022-11-24T02:55:53.369Z,0.00
2022-11-24T02:56:53.465Z,0.00
2022-11-24T02:57:53.565Z,0.00
2022-11-24T02:58:53.705Z,0.00
2022-11-24T02:59:53.877Z,0.00
2022-11-24T03:00:53.990Z,0.00
2022-11-24T03:01:54.187Z,0.00
2022-11-24T03:02:55.220Z,0.00
2022-11-24T03:03:54.335Z,0.00
2022-11-24T03:04:54.478Z,0.00
2022-11-24T03:05:54.636Z,0.00
2022-11-24T03:06:54.779Z,0.00
2022-11-24T03:07:54.954Z,0.00
2022-11-24T03:08:55.001Z,0.00
2022-11-24T03:09:55.144Z,0.00
2022-11-24T03:10:55.296Z,0.00
2022-11-24T03:11:55.456Z,0.00
2022-11-24T03:12:55.551Z,0.00
2022-11-24T03:13:55.672Z,0.00
2022-11-24T03:14:55.784Z,0.00
2022-11-24T03:15:55.970Z,0.00
2022-11-24T03:16:56.124Z,0.00
2022-11-24T03:17:56.191Z,0.00
2022-11-24T03:18:56.334Z,0.00
2022-11-24T03:20:00.199Z,0.00
2022-11-24T03:20:57.599Z,0.00
2022-11-24T03:21:56.770Z,0.00
2022-11-24T03:22:56.858Z,0.00
2022-11-24T03:23:57.000Z,0.00
2022-11-24T03:24:57.140Z,0.00
2022-11-24T03:25:57.288Z,0.00
2022-11-24T03:26:57.479Z,0.00
2022-11-24T03:27:57.548Z,0.00
2022-11-24T03:28:57.642Z,0.00
2022-11-24T03:29:57.792Z,0.00
2022-11-24T03:30:57.975Z,0.00
2022-11-24T03:31:58.096Z,0.00
2022-11-24T03:32:58.247Z,0.00
2022-11-24T03:33:58.346Z,0.00
2022-11-24T03:34:58.463Z,0.00
2022-11-24T03:35:58.605Z,0.00
2022-11-24T03:36:58.734Z,0.00
2022-11-24T03:37:59.062Z,0.00
2022-11-24T03:38:59.015Z,0.00
2022-11-24T03:39:59.133Z,0.00
2022-11-24T03:40:59.220Z,0.00
2022-11-24T03:41:59.386Z,0.00
2022-11-24T03:42:59.505Z,0.00
2022-11-24T03:43:59.599Z,0.00
2022-11-24T03:45:11.778Z,0.00
2022-11-24T03:46:00.862Z,0.00
2022-11-24T03:46:59.964Z,0.00
2022-11-24T03:48:00.103Z,0.00
2022-11-24T03:49:00.243Z,0.00
2022-11-24T03:50:00.377Z,0.00
2022-11-24T03:51:00.522Z,0.00
2022-11-24T03:52:07.635Z,0.00
2022-11-24T03:53:01.835Z,0.00
2022-11-24T03:54:00.914Z,0.00
2022-11-24T03:55:01.040Z,0.00
2022-11-24T03:56:01.171Z,0.00
2022-11-24T03:57:01.349Z,0.00
2022-11-24T03:58:01.450Z,0.00
2022-11-24T03:59:01.530Z,0.00
2022-11-24T04:00:01.669Z,0.00
2022-11-24T04:01:01.831Z,0.00
2022-11-24T04:02:02.055Z,0.00
2022-11-24T04:03:02.209Z,0.00
2022-11-24T04:04:02.248Z,0.00
2022-11-24T04:05:02.328Z,0.00
2022-11-24T04:06:02.459Z,0.00
2022-11-24T04:07:02.599Z,0.00
2022-11-24T04:08:02.800Z,0.00
2022-11-24T04:09:02.828Z,0.00
2022-11-24T04:10:02.987Z,0.00
2022-11-24T04:11:03.088Z,0.00
2022-11-24T04:12:03.769Z,0.00
2022-11-24T04:13:03.399Z,0.00
2022-11-24T04:14:04.355Z,0.00
2022-11-24T04:15:03.607Z,0.00
2022-11-24T04:16:03.765Z,0.00
2022-11-24T04:17:03.863Z,0.00
2022-11-24T04:18:04.019Z,0.00
2022-11-24T04:19:04.165Z,0.00
2022-11-24T04:20:04.244Z,0.00
2022-11-24T04:21:04.382Z,0.00
2022-11-24T04:22:04.494Z,0.00
2022-11-24T04:23:04.676Z,0.00
2022-11-24T04:24:04.818Z,0.00
2022-11-24T04:25:04.914Z,0.00
2022-11-24T04:26:05.002Z,0.00
2022-11-24T04:27:05.123Z,0.00
2022-11-24T04:28:05.262Z,0.00
2022-11-24T04:29:05.988Z,0.00
2022-11-24T04:30:05.534Z,0.00
2022-11-24T04:31:05.751Z,0.00
2022-11-24T04:32:05.811Z,0.00
2022-11-24T04:33:05.953Z,0.00
2022-11-24T04:34:06.101Z,0.00
2022-11-24T04:35:06.224Z,0.00
2022-11-24T04:36:06.325Z,0.00
2022-11-24T04:37:06.479Z,0.00
2022-11-24T04:38:06.654Z,0.00
2022-11-24T04:39:23.940Z,0.00
2022-11-24T04:40:07.888Z,0.00
2022-11-24T04:41:07.020Z,0.00
2022-11-24T04:42:07.130Z,0.00
2022-11-24T04:43:07.233Z,0.00
2022-11-24T04:44:07.381Z,0.00
2022-11-24T04:45:07.503Z,0.00
2022-11-24T04:46:07.603Z,0.00
2022-11-24T04:47:07.719Z,0.00
2022-11-24T04:48:07.903Z,0.00
2022-11-24T04:49:08.077Z,0.00
2022-11-24T04:50:08.138Z,0.00
2022-11-24T04:51:08.227Z,0.00
2022-11-24T04:52:08.378Z,0.00
2022-11-24T04:53:08.571Z,0.00
2022-11-24T04:54:08.708Z,0.00
2022-11-24T04:55:08.777Z,0.00
2022-11-24T04:56:08.937Z,0.00
2022-11-24T04:57:09.054Z,0.00
2022-11-24T04:58:09.132Z,0.00
2022-11-24T04:59:09.366Z,0.00
2022-11-24T05:00:09.427Z,0.00
2022-11-24T05:01:09.539Z,0.00
2022-11-24T05:02:09.942Z,0.00
2022-11-24T05:03:09.889Z,0.00
2022-11-24T05:04:10.017Z,0.00
2022-11-24T05:05:10.111Z,0.00
2022-11-24T05:06:10.201Z,0.00
2022-11-24T05:07:14.843Z,0.00
2022-11-24T05:08:11.468Z,0.00
2022-11-24T05:09:10.693Z,0.00
2022-11-24T05:10:10.725Z,0.00
2022-11-24T05:11:10.853Z,0.00
2022-11-24T05:12:10.997Z,0.00
2022-11-24T05:13:11.121Z,0.00
2022-11-24T05:14:11.352Z,0.00
2022-11-24T05:15:11.380Z,0.00
2022-11-24T05:16:11.571Z,0.00
2022-11-24T05:17:11.672Z,0.00
2022-11-24T05:18:11.779Z,0.00
2022-11-24T05:19:12.010Z,0.00
2022-11-24T05:20:12.070Z,0.00
2022-11-24T05:21:12.181Z,0.00
2022-11-24T05:22:12.304Z,0.00
2022-11-24T05:23:12.443Z,0.00
2022-11-24T05:24:12.559Z,0.00
2022-11-24T05:25:12.646Z,0.00
2022-11-24T05:26:12.770Z,0.00
2022-11-24T05:27:12.867Z,0.00
2022-11-24T05:28:12.957Z,0.00
2022-11-24T05:29:13.161Z,0.00
2022-11-24T05:30:13.219Z,0.00
2022-11-24T05:31:13.367Z,0.00
2022-11-24T05:32:13.393Z,0.00
2022-11-24T05:33:13.517Z,0.00
2022-11-24T05:34:13.627Z,0.00
2022-11-24T05:35:13.747Z,0.00
2022-11-24T05:36:13.842Z,0.00
2022-11-24T05:37:13.946Z,0.00
2022-11-24T05:38:14.055Z,0.00
2022-11-24T05:39:14.195Z,0.00
2022-11-24T05:40:14.310Z,0.00
2022-11-24T05:41:14.425Z,0.00
2022-11-24T05:42:14.534Z,0.00
2022-11-24T05:43:14.673Z,0.00
2022-11-24T05:44:14.802Z,0.00
2022-11-24T05:45:14.927Z,0.00
2022-11-24T05:46:15.072Z,0.00
2022-11-24T05:47:15.145Z,0.00
2022-11-24T05:48:15.262Z,0.00
2022-11-24T05:49:15.521Z,0.00
2022-11-24T05:50:15.479Z,0.00
2022-11-24T05:51:15.582Z,0.00
2022-11-24T05:52:15.709Z,0.00
2022-11-24T05:53:15.813Z,0.00
2022-11-24T05:54:16.050Z,0.00
2022-11-24T05:55:16.087Z,0.00
2022-11-24T05:56:16.156Z,0.00
2022-11-24T05:57:16.261Z,0.00
2022-11-24T05:58:16.369Z,0.00
2022-11-24T05:59:20.139Z,0.00
2022-11-24T06:00:16.589Z,0.00
2022-11-24T06:01:16.690Z,0.00
2022-11-24T06:02:17.359Z,0.00
2022-11-24T06:03:16.968Z,0.00
2022-11-24T06:04:17.036Z,0.00
2022-11-24T06:05:17.173Z,0.00
2022-11-24T06:06:17.267Z,0.00
2022-11-24T06:07:17.395Z,0.00
2022-11-24T06:08:17.455Z,0.00
2022-11-24T06:09:17.658Z,0.00
2022-11-24T06:10:17.715Z,0.00
2022-11-24T06:11:17.849Z,0.00
2022-11-24T06:12:17.937Z,0.00
2022-11-24T06:13:18.074Z,0.00
2022-11-24T06:14:18.182Z,0.00
2022-11-24T06:15:18.304Z,0.00
2022-11-24T06:16:18.453Z,0.00
2022-11-24T06:17:18.504Z,0.00
2022-11-24T06:18:18.632Z,0.00
2022-11-24T06:19:18.784Z,0.00
2022-11-24T06:20:18.846Z,0.00
2022-11-24T06:21:18.952Z,0.00
2022-11-24T06:22:19.075Z,0.00
2022-11-24T06:23:19.172Z,0.00
2022-11-24T06:24:19.304Z,0.00
2022-11-24T06:25:19.410Z,0.00
2022-11-24T06:26:19.501Z,0.00
2022-11-24T06:27:19.615Z,0.00
2022-11-24T06:28:19.730Z,0.00
2022-11-24T06:29:19.984Z,0.00
2022-11-24T06:30:19.940Z,0.00
2022-11-24T06:31:20.087Z,0.00
2022-11-24T06:32:20.177Z,0.00
2022-11-24T06:33:20.268Z,0.00
2022-11-24T06:34:20.453Z,0.00
2022-11-24T06:35:20.512Z,0.00
2022-11-24T06:36:20.628Z,0.00
2022-11-24T06:37:20.731Z,0.00
2022-11-24T06:38:24.303Z,0.00
2022-11-24T06:39:21.020Z,0.00
2022-11-24T06:40:21.107Z,0.00
2022-11-24T06:41:21.188Z,0.00
2022-11-24T06:42:21.309Z,0.00
2022-11-24T06:43:21.427Z,0.00
2022-11-24T06:44:21.668Z,0.00
2022-11-24T06:45:21.628Z,0.00
2022-11-24T06:46:21.770Z,0.00
2022-11-24T06:47:21.868Z,0.00
2022-11-24T06:48:21.988Z,0.00
2022-11-24T06:49:22.177Z,0.00
2022-11-24T06:50:22.176Z,0.00
2022-11-24T06:51:22.304Z,0.00
2022-11-24T06:52:22.421Z,0.00
2022-11-24T06:53:22.544Z,0.00
2022-11-24T06:54:22.728Z,0.00
2022-11-24T06:55:22.719Z,0.00
2022-11-24T06:56:22.823Z,0.00
2022-11-24T06:57:22.946Z,0.00
2022-11-24T06:58:23.043Z,0.00
2022-11-24T06:59:23.204Z,5.62
2022-11-24T07:00:23.293Z,5.62
2022-11-24T07:01:24.386Z,5.62
2022-11-24T07:02:23.492Z,5.62
2022-11-24T07:03:23.696Z,5.62
2022-11-24T07:04:23.752Z,5.62
2022-11-24T07:05:23.811Z,5.62
2022-11-24T07:06:23.943Z,5.62
2022-11-24T07:07:24.128Z,5.62
2022-11-24T07:08:24.151Z,5.62
2022-11-24T07:09:24.399Z,11.25
2022-11-24T07:10:24.390Z,11.25
2022-11-24T07:11:24.528Z,11.25
2022-11-24T07:12:24.682Z,11.25
2022-11-24T07:13:24.798Z,11.25
2022-11-24T07:14:24.969Z,11.25
2022-11-24T07:15:25.058Z,16.88
2022-11-24T07:16:25.272Z,16.88
2022-11-24T07:17:25.339Z,16.88
2022-11-24T07:18:25.470Z,16.88
2022-11-24T07:19:25.627Z,16.88
2022-11-24T07:20:25.733Z,16.88
2022-11-24T07:21:25.857Z,22.50
2022-11-24T07:22:25.996Z,22.50
2022-11-24T07:23:26.136Z,22.50
2022-11-24T07:24:26.277Z,28.12
2022-11-24T07:25:26.412Z,28.12
2022-11-24T07:26:26.537Z,28.12
2022-11-24T07:27:26.658Z,28.12
2022-11-24T07:28:26.811Z,33.75
2022-11-24T07:29:27.005Z,33.75
2022-11-24T07:30:27.061Z,33.75
2022-11-24T07:31:27.255Z,33.75
2022-11-24T07:32:27.323Z,39.38
2022-11-24T07:33:27.459Z,39.38
2022-11-24T07:34:27.596Z,39.38
2022-11-24T07:35:27.719Z,45.00
2022-11-24T07:36:27.844Z,45.00
2022-11-24T07:37:31.280Z,50.62
2022-11-24T07:38:28.086Z,56.25
2022-11-24T07:39:28.232Z,61.88
2022-11-24T07:40:28.380Z,67.50
2022-11-24T07:41:28.470Z,73.12
2022-11-24T07:42:28.552Z,67.50
2022-11-24T07:43:28.684Z,73.12
2022-11-24T07:44:28.853Z,78.75
2022-11-24T07:45:29.029Z,67.50
2022-11-24T07:46:29.126Z,61.88
2022-11-24T07:47:29.221Z,67.50
2022-11-24T07:48:29.318Z,67.50
2022-11-24T07:49:29.540Z,73.12
2022-11-24T07:50:29.590Z,73.12
2022-11-24T07:51:29.690Z,73.12
2022-11-24T07:52:29.853Z,84.38
2022-11-24T07:53:29.979Z,84.38
2022-11-24T07:54:30.163Z,90.00
2022-11-24T07:55:30.255Z,90.00
2022-11-24T07:56:30.400Z,84.38
2022-11-24T07:57:30.496Z,78.75
2022-11-24T07:58:32.860Z,84.38
2022-11-24T07:59:30.796Z,84.38
2022-11-24T08:00:30.886Z,84.38
2022-11-24T08:01:31.088Z,101.25
2022-11-24T08:02:31.155Z,106.88
2022-11-24T08:03:31.397Z,106.88
2022-11-24T08:04:31.562Z,129.38
2022-11-24T08:05:31.564Z,140.62
2022-11-24T08:06:40.687Z,129.38
2022-11-24T08:07:32.860Z,106.88
2022-11-24T08:08:32.009Z,106.88
2022-11-24T08:09:32.137Z,112.50
2022-11-24T08:10:32.239Z,129.38
2022-11-24T08:11:32.386Z,129.38
2022-11-24T08:12:32.482Z,118.12
2022-11-24T08:13:32.664Z,118.12
2022-11-24T08:14:33.075Z,123.75
2022-11-24T08:15:32.886Z,140.62
2022-11-24T08:16:33.137Z,168.75
2022-11-24T08:17:33.141Z,151.88
2022-11-24T08:18:33.491Z,135.00
2022-11-24T08:19:33.433Z,151.88
2022-11-24T08:20:33.554Z,151.88
2022-11-24T08:21:33.710Z,151.88
2022-11-24T08:22:33.834Z,123.75
2022-11-24T08:23:33.930Z,112.50
2022-11-24T08:24:34.257Z,112.50
2022-11-24T08:25:34.359Z,106.88
2022-11-24T08:26:34.301Z,112.50
2022-11-24T08:27:34.440Z,146.25
2022-11-24T08:28:34.614Z,191.25
2022-11-24T08:29:34.766Z,168.75
2022-11-24T08:30:34.859Z,157.50
2022-11-24T08:31:35.024Z,163.12
2022-11-24T08:32:35.118Z,151.88
2022-11-24T08:33:35.256Z,140.62
2022-11-24T08:34:35.468Z,151.88
2022-11-24T08:35:35.462Z,157.50
2022-11-24T08:36:35.625Z,180.00
2022-11-24T08:37:35.734Z,191.25
2022-11-24T08:38:35.906Z,185.62
2022-11-24T08:39:36.007Z,168.75
2022-11-24T08:40:36.130Z,174.38
2022-11-24T08:41:36.391Z,180.00
2022-11-24T08:42:36.397Z,196.88
2022-11-24T08:43:36.559Z,202.50
2022-11-24T08:44:37.111Z,202.50
2022-11-24T08:45:41.427Z,213.75
2022-11-24T08:46:37.956Z,213.75
2022-11-24T08:47:37.054Z,202.50
2022-11-24T08:48:37.215Z,191.25
2022-11-24T08:49:37.324Z,180.00
2022-11-24T08:50:37.457Z,185.62
2022-11-24T08:51:37.602Z,174.38
2022-11-24T08:52:37.703Z,140.62
2022-11-24T08:53:37.834Z,151.88
2022-11-24T08:54:37.992Z,123.75
2022-11-24T08:55:38.108Z,112.50
2022-11-24T08:56:39.192Z,118.12
2022-11-24T08:57:38.373Z,123.75
2022-11-24T08:58:38.601Z,129.38
2022-11-24T08:59:38.643Z,123.75
2022-11-24T09:00:38.790Z,135.00
2022-11-24T09:01:38.967Z,135.00
2022-11-24T09:02:38.973Z,140.62
2022-11-24T09:03:41.231Z,140.62
2022-11-24T09:04:40.343Z,146.25
2022-11-24T09:05:54.708Z,146.25
2022-11-24T09:06:40.490Z,146.25
2022-11-24T09:07:39.678Z,151.88
2022-11-24T09:08:39.738Z,140.62
2022-11-24T09:09:39.937Z,146.25
2022-11-24T09:10:40.046Z,146.25
2022-11-24T09:11:40.168Z,151.88
2022-11-24T09:12:40.307Z,168.75
2022-11-24T09:13:40.454Z,151.88
2022-11-24T09:14:40.629Z,151.88
2022-11-24T09:15:40.738Z,151.88
2022-11-24T09:16:40.896Z,151.88
2022-11-24T09:17:40.968Z,151.88
2022-11-24T09:18:41.229Z,157.50
2022-11-24T09:19:41.234Z,157.50
2022-11-24T09:20:41.451Z,157.50
2022-11-24T09:21:41.513Z,163.12
2022-11-24T09:22:41.602Z,163.12
2022-11-24T09:23:41.775Z,157.50
2022-11-24T09:24:41.874Z,157.50
2022-11-24T09:25:42.005Z,180.00
2022-11-24T09:26:47.324Z,157.50
2022-11-24T09:27:43.313Z,140.62
2022-11-24T09:28:42.458Z,163.12
2022-11-24T09:29:42.654Z,163.12
2022-11-24T09:30:42.771Z,163.12
2022-11-24T09:31:42.837Z,163.12
2022-11-24T09:32:43.001Z,174.38
2022-11-24T09:33:43.240Z,208.12
2022-11-24T09:34:43.240Z,180.00
2022-11-24T09:35:43.351Z,180.00
2022-11-24T09:36:43.492Z,174.38
2022-11-24T09:37:43.621Z,174.38
2022-11-24T09:38:43.802Z,168.75
2022-11-24T09:39:43.906Z,174.38
2022-11-24T09:40:44.022Z,174.38
2022-11-24T09:41:44.102Z,174.38
2022-11-24T09:42:48.055Z,174.38
2022-11-24T09:43:45.388Z,174.38
2022-11-24T09:44:44.461Z,180.00
2022-11-24T09:46:45.745Z,202.50
2022-11-24T09:47:44.865Z,180.00
2022-11-24T09:48:45.016Z,185.62
2022-11-24T09:49:48.559Z,185.62
2022-11-24T09:50:46.274Z,180.00
2022-11-24T09:51:45.407Z,180.00
2022-11-24T09:52:45.516Z,180.00
2022-11-24T09:53:45.687Z,180.00
2022-11-24T09:54:45.771Z,180.00
2022-11-24T09:55:45.899Z,185.62
2022-11-24T09:56:46.067Z,180.00
2022-11-24T09:57:46.194Z,180.00
2022-11-24T09:58:46.881Z,180.00
2022-11-24T09:59:46.456Z,180.00
2022-11-24T10:00:46.594Z,180.00
2022-11-24T10:01:46.817Z,180.00
2022-11-24T10:02:46.856Z,185.62
2022-11-24T10:03:47.045Z,180.00
2022-11-24T10:04:47.174Z,180.00
2022-11-24T10:05:47.271Z,180.00
2022-11-24T10:06:47.395Z,185.62
2022-11-24T10:07:47.616Z,180.00
2022-11-24T10:08:47.693Z,191.25
2022-11-24T10:09:47.791Z,180.00
2022-11-24T10:10:47.902Z,180.00
2022-11-24T10:11:47.982Z,180.00
2022-11-24T10:12:48.134Z,180.00
2022-11-24T10:13:48.273Z,185.62
2022-11-24T10:14:48.389Z,180.00
2022-11-24T10:15:48.521Z,185.62
2022-11-24T10:16:48.975Z,202.50
2022-11-24T10:17:48.731Z,196.88
2022-11-24T10:18:48.930Z,219.38
2022-11-24T10:19:49.040Z,185.62
2022-11-24T10:20:49.152Z,196.88
2022-11-24T10:21:49.240Z,196.88
2022-11-24T10:22:49.378Z,196.88
2022-11-24T10:23:49.521Z,185.62
2022-11-24T10:24:49.667Z,191.25
2022-11-24T10:25:49.809Z,225.00
2022-11-24T10:26:49.937Z,219.38
2022-11-24T10:27:50.115Z,196.88
2022-11-24T10:28:50.298Z,196.88
2022-11-24T10:29:50.406Z,191.25
2022-11-24T10:30:50.521Z,196.88
2022-11-24T10:31:50.609Z,191.25
2022-11-24T10:32:51.707Z,196.88
2022-11-24T10:33:50.917Z,196.88
2022-11-24T10:34:51.958Z,196.88
2022-11-24T10:35:51.188Z,196.88
2022-11-24T10:36:51.274Z,196.88
2022-11-24T10:37:51.399Z,202.50
2022-11-24T10:38:51.572Z,196.88
2022-11-24T10:39:54.789Z,196.88
2022-11-24T10:40:57.496Z,202.50
2022-11-24T10:41:52.913Z,202.50
2022-11-24T10:42:52.063Z,196.88
2022-11-24T10:43:52.175Z,202.50
2022-11-24T10:44:52.310Z,202.50
2022-11-24T10:45:52.466Z,202.50
2022-11-24T10:46:52.581Z,196.88
2022-11-24T10:47:52.653Z,196.88
2022-11-24T10:48:52.803Z,202.50
2022-11-24T10:49:52.972Z,202.50
2022-11-24T10:50:53.023Z,202.50
2022-11-24T10:51:53.166Z,202.50
2022-11-24T10:52:53.271Z,202.50
2022-11-24T10:53:53.354Z,208.12
2022-11-24T10:54:53.536Z,208.12
2022-11-24T10:55:53.622Z,208.12
2022-11-24T10:56:53.750Z,208.12
2022-11-24T10:57:53.905Z,208.12
2022-11-24T10:58:54.011Z,208.12
2022-11-24T10:59:54.126Z,213.75
2022-11-24T11:00:54.224Z,213.75
2022-11-24T11:01:54.416Z,264.38
2022-11-24T11:02:54.501Z,230.62
2022-11-24T11:03:54.638Z,225.00
2022-11-24T11:04:54.828Z,213.75
2022-11-24T11:05:54.928Z,236.25
2022-11-24T11:06:55.031Z,213.75
2022-11-24T11:07:55.248Z,208.12
2022-11-24T11:08:55.312Z,213.75
2022-11-24T11:09:55.469Z,219.38
2022-11-24T11:10:55.577Z,230.62
2022-11-24T11:11:56.956Z,208.12
2022-11-24T11:12:55.850Z,208.12
2022-11-24T11:14:03.164Z,219.38
2022-11-24T11:14:57.166Z,208.12
2022-11-24T11:15:56.327Z,208.12
2022-11-24T11:16:56.366Z,151.88
2022-11-24T11:17:56.517Z,208.12
2022-11-24T11:18:56.612Z,202.50
2022-11-24T11:20:02.006Z,202.50
2022-11-24T11:20:57.871Z,202.50
2022-11-24T11:21:56.956Z,202.50
2022-11-24T11:22:57.144Z,202.50
2022-11-24T11:23:57.239Z,202.50
2022-11-24T11:24:57.414Z,202.50
2022-11-24T11:25:57.525Z,202.50
2022-11-24T11:26:57.638Z,202.50
2022-11-24T11:27:57.734Z,202.50
2022-11-24T11:28:57.843Z,202.50
2022-11-24T11:31:17.781Z,202.50
2022-11-24T11:34:04.189Z,202.50
2022-11-24T11:34:59.661Z,202.50
2022-11-24T11:35:58.836Z,202.50
2022-11-24T11:36:58.884Z,196.88
2022-11-24T11:37:58.993Z,196.88
2022-11-24T11:38:59.112Z,196.88
2022-11-24T11:39:59.281Z,196.88
2022-11-24T11:40:59.371Z,196.88
2022-11-24T11:41:59.480Z,196.88
2022-11-24T11:43:02.857Z,196.88
2022-11-24T11:43:59.747Z,174.38
2022-11-24T11:44:59.869Z,196.88
2022-11-24T11:45:59.999Z,163.12
2022-11-24T11:47:00.224Z,196.88
2022-11-24T11:48:00.188Z,196.88
2022-11-24T11:49:00.357Z,196.88
2022-11-24T11:50:00.519Z,185.62
2022-11-24T11:51:22.374Z,196.88
2022-11-24T11:52:01.687Z,196.88
2022-11-24T11:53:00.906Z,196.88
2022-11-24T11:54:01.027Z,196.88
2022-11-24T11:55:01.125Z,196.88
2022-11-24T11:56:01.281Z,196.88
2022-11-24T11:57:01.367Z,196.88
2022-11-24T11:58:01.474Z,196.88
2022-11-24T11:59:01.601Z,196.88
2022-11-24T12:00:02.029Z,196.88
2022-11-24T12:01:01.816Z,196.88
2022-11-24T12:02:01.926Z,196.88
2022-11-24T12:03:02.245Z,196.88
2022-11-24T12:04:02.223Z,196.88
2022-11-24T12:05:02.346Z,196.88
2022-11-24T12:06:02.408Z,196.88
2022-11-24T12:07:02.553Z,196.88
2022-11-24T12:08:09.266Z,196.88
2022-11-24T12:09:19.942Z,196.88
2022-11-24T12:10:03.945Z,191.25
2022-11-24T12:11:03.036Z,191.25
2022-11-24T12:12:03.181Z,191.25
2022-11-24T12:13:03.302Z,191.25
2022-11-24T12:14:03.416Z,196.88
2022-11-24T12:15:10.329Z,191.25
2022-11-24T12:16:04.737Z,191.25
2022-11-24T12:17:03.801Z,191.25
2022-11-24T12:18:03.889Z,191.25
2022-11-24T12:19:04.031Z,191.25
2022-11-24T12:20:04.199Z,191.25
2022-11-24T12:21:04.230Z,191.25
2022-11-24T12:22:04.319Z,191.25
2022-11-24T12:23:04.459Z,191.25
2022-11-24T12:24:04.578Z,191.25
2022-11-24T12:25:04.740Z,191.25
2022-11-24T12:26:04.780Z,185.62
2022-11-24T12:27:04.890Z,185.62
2022-11-24T12:28:05.009Z,185.62
2022-11-24T12:29:05.121Z,163.12
2022-11-24T12:30:05.468Z,168.75
2022-11-24T12:31:05.494Z,180.00
2022-11-24T12:32:05.568Z,191.25
2022-11-24T12:33:05.699Z,191.25
2022-11-24T12:34:05.816Z,191.25
2022-11-24T12:35:05.929Z,191.25
2022-11-24T12:36:06.019Z,191.25
2022-11-24T12:37:06.136Z,191.25
2022-11-24T12:38:06.242Z,191.25
2022-11-24T12:39:06.376Z,191.25
2022-11-24T12:40:06.547Z,191.25
2022-11-24T12:41:33.687Z,191.25
2022-11-24T12:42:07.781Z,185.62
2022-11-24T12:43:06.904Z,185.62
2022-11-24T12:44:07.002Z,185.62
2022-11-24T12:45:07.105Z,185.62
2022-11-24T12:46:09.951Z,185.62
2022-11-24T12:47:08.378Z,185.62
2022-11-24T12:48:07.454Z,185.62
2022-11-24T12:49:07.573Z,185.62
2022-11-24T12:50:07.763Z,185.62
2022-11-24T12:51:07.755Z,185.62
2022-11-24T12:52:07.915Z,185.62
2022-11-24T12:53:07.993Z,185.62
2022-11-24T12:54:08.103Z,185.62
2022-11-24T12:55:08.323Z,185.62
2022-11-24T12:56:08.357Z,185.62
2022-11-24T12:57:08.453Z,185.62
2022-11-24T12:58:11.208Z,185.62
2022-11-24T12:59:08.664Z,185.62
2022-11-24T13:00:08.822Z,185.62
2022-11-24T13:01:14.719Z,185.62
2022-11-24T13:02:10.138Z,185.62